Time;durP1;ratioP1;P1;durP2;ratioP2;P2;SDS_P1;SDS_P2;PMS_P1;PMS_P2;Temp;Humidity;BMP_temperature;BMP_pressure;BME280_temperature;BME280_humidity;BME280_pressure;Samples;Min_cycle;Max_cycle;Signal;HPM_P1;HPM_P2
2023/06/20 00:02:40;;;;;;;9.30;8.40;;;26.80;25.50;;;;;;10431301;28;20228;-70
2023/06/20 00:07:44;;;;;;;8.70;7.90;;;26.60;25.20;;;;;;10433329;28;20328;-70
2023/06/20 00:12:48;;;;;;;9.03;8.17;;;26.60;25.50;;;;;;10427729;28;20228;-69
2023/06/20 00:17:51;;;;;;;8.83;8.20;;;26.50;26.00;;;;;;10430501;28;20245;-69
2023/06/20 00:22:55;;;;;;;9.50;8.80;;;26.30;25.70;;;;;;10419614;28;20240;-70
2023/06/20 00:28:02;;;;;;;8.87;8.17;;;26.20;26.00;;;;;;10428330;28;20261;-70
2023/06/20 00:33:05;;;;;;;7.70;7.03;;;26.00;26.30;;;;;;10425216;28;20344;-70
2023/06/20 00:38:08;;;;;;;9.20;8.50;;;26.00;26.20;;;;;;10432987;28;20236;-69
2023/06/20 00:43:13;;;;;;;9.20;8.50;;;26.00;26.30;;;;;;10432270;28;21192;-69
2023/06/20 00:48:17;;;;;;;9.37;8.70;;;25.80;26.70;;;;;;10418527;28;20659;-69
2023/06/20 00:53:20;;;;;;;9.30;8.50;;;25.70;26.60;;;;;;10430524;28;20225;-70
2023/06/20 00:58:25;;;;;;;9.40;8.70;;;25.40;26.70;;;;;;10430331;28;20235;-70
2023/06/20 01:03:28;;;;;;;9.43;8.70;;;25.20;27.50;;;;;;10428299;28;21085;-70
2023/06/20 01:08:39;;;;;;;9.50;8.70;;;25.10;27.40;;;;;;10432453;28;20256;-69
2023/06/20 01:13:50;;;;;;;8.30;7.70;;;25.10;28.70;;;;;;10429040;28;20624;-69
2023/06/20 01:19:00;;;;;;;9.47;8.70;;;24.90;28.60;;;;;;10436965;28;20237;-69
2023/06/20 01:24:13;;;;;;;9.77;8.97;;;24.90;28.80;;;;;;10431554;28;20697;-69
2023/06/20 01:29:21;;;;;;;8.90;8.20;;;24.90;28.60;;;;;;10421912;28;20271;-70
2023/06/20 01:34:27;;;;;;;8.37;7.77;;;24.90;28.50;;;;;;10427508;28;20274;-69
2023/06/20 01:39:39;;;;;;;9.33;8.60;;;24.80;28.10;;;;;;10427432;28;20855;-70
2023/06/20 01:44:44;;;;;;;9.70;9.00;;;24.80;28.60;;;;;;10431218;28;20228;-69
2023/06/20 01:49:51;;;;;;;9.43;8.57;;;24.80;28.20;;;;;;10432276;28;20233;-70
2023/06/20 01:54:57;;;;;;;10.37;9.57;;;24.70;28.50;;;;;;10428959;28;20226;-69
2023/06/20 02:00:04;;;;;;;9.90;9.20;;;24.60;28.40;;;;;;10434399;28;20333;-69
2023/06/20 02:05:10;;;;;;;9.63;8.93;;;24.30;28.40;;;;;;10447458;28;20710;-68
2023/06/20 02:10:16;;;;;;;9.80;8.90;;;24.00;28.70;;;;;;10443729;28;20720;-68
2023/06/20 02:15:21;;;;;;;9.47;8.77;;;23.90;29.50;;;;;;10431018;28;20592;-68
2023/06/20 02:20:24;;;;;;;8.87;8.17;;;23.80;29.30;;;;;;10432999;28;20312;-67
2023/06/20 02:25:34;;;;;;;9.40;8.70;;;23.80;28.90;;;;;;10433031;28;20669;-68
2023/06/20 02:30:38;;;;;;;9.77;8.97;;;23.90;30.10;;;;;;10444268;28;20328;-68
2023/06/20 02:35:43;;;;;;;9.67;8.87;;;23.90;29.40;;;;;;10433235;28;20461;-68
2023/06/20 02:40:50;;;;;;;8.93;8.23;;;23.80;29.60;;;;;;10445954;28;20727;-68
2023/06/20 02:46:00;;;;;;;10.40;8.73;;;23.70;29.70;;;;;;10438554;28;20236;-67
2023/06/20 02:51:08;;;;;;;7.60;6.77;;;23.60;30.70;;;;;;10434738;28;20232;-68
2023/06/20 02:56:14;;;;;;;5.53;5.07;;;23.50;30.90;;;;;;10444269;28;20330;-68
2023/06/20 03:01:23;;;;;;;5.60;5.20;;;23.30;30.90;;;;;;10433571;28;20221;-68
2023/06/20 03:06:28;;;;;;;6.60;6.07;;;23.20;31.60;;;;;;10430429;28;20228;-67
2023/06/20 03:11:33;;;;;;;7.23;6.73;;;23.10;30.90;;;;;;10440657;28;20231;-68
2023/06/20 03:16:36;;;;;;;8.27;7.60;;;23.10;31.40;;;;;;10437335;28;20236;-68
2023/06/20 03:21:40;;;;;;;8.60;7.90;;;23.10;30.80;;;;;;10439924;28;20945;-68
2023/06/20 03:26:44;;;;;;;8.17;7.47;;;23.00;30.80;;;;;;10443885;28;20268;-68
2023/06/20 03:31:47;;;;;;;6.80;6.30;;;23.00;31.70;;;;;;10446080;28;20251;-68
2023/06/20 03:36:51;;;;;;;6.80;6.30;;;22.90;30.90;;;;;;10435599;28;20243;-67
2023/06/20 03:41:56;;;;;;;7.37;6.87;;;22.90;31.10;;;;;;10424854;28;20594;-68
2023/06/20 03:46:59;;;;;;;7.20;6.60;;;22.90;31.90;;;;;;10430319;28;20232;-68
2023/06/20 03:52:03;;;;;;;7.00;6.40;;;23.00;31.60;;;;;;10434289;28;20241;-67
2023/06/20 03:57:08;;;;;;;6.37;5.97;;;23.00;31.50;;;;;;10433318;28;20876;-68
2023/06/20 04:02:11;;;;;;;6.50;5.97;;;23.10;32.20;;;;;;10434376;28;20231;-67
2023/06/20 04:07:18;;;;;;;9.13;6.60;;;23.10;31.60;;;;;;10438545;28;20247;-68
2023/06/20 04:12:22;;;;;;;11.20;6.80;;;23.10;31.60;;;;;;10429178;28;20231;-68
2023/06/20 04:17:26;;;;;;;8.00;7.20;;;23.10;32.50;;;;;;10432776;28;20245;-68
2023/06/20 04:22:29;;;;;;;7.50;6.90;;;23.10;32.20;;;;;;10434056;28;20221;-67
2023/06/20 04:27:33;;;;;;;6.53;6.03;;;23.10;32.40;;;;;;10424969;28;20686;-68
2023/06/20 04:32:37;;;;;;;6.20;5.70;;;23.00;33.00;;;;;;10431977;28;20247;-68
2023/06/20 04:37:41;;;;;;;6.10;5.53;;;22.90;32.70;;;;;;10430371;28;20233;-69
2023/06/20 04:42:46;;;;;;;6.03;5.53;;;23.00;32.90;;;;;;10418431;28;20237;-69
2023/06/20 04:47:50;;;;;;;7.10;6.00;;;23.00;33.80;;;;;;10427659;28;20315;-67
2023/06/20 04:52:54;;;;;;;6.27;5.67;;;23.10;33.70;;;;;;10427992;28;20251;-67
2023/06/20 04:57:58;;;;;;;5.70;5.17;;;23.10;33.60;;;;;;10426805;28;20228;-67
2023/06/20 05:03:01;;;;;;;5.80;5.40;;;23.10;34.50;;;;;;10428405;28;20752;-68
2023/06/20 05:08:05;;;;;;;5.67;5.27;;;23.10;33.80;;;;;;10425626;28;20238;-67
2023/06/20 05:13:10;;;;;;;4.80;4.40;;;23.10;33.90;;;;;;10427928;28;20234;-67
2023/06/20 05:18:13;;;;;;;5.00;4.60;;;23.20;34.60;;;;;;10426679;28;20720;-65
2023/06/20 05:23:16;;;;;;;9.73;5.23;;;23.30;34.30;;;;;;10427898;28;20586;-67
2023/06/20 05:28:21;;;;;;;5.13;4.73;;;23.40;34.40;;;;;;10424619;28;20225;-68
2023/06/20 05:33:25;;;;;;;5.37;4.97;;;23.50;35.10;;;;;;10420578;28;20240;-69
2023/06/20 05:38:31;;;;;;;6.57;5.47;;;23.60;34.50;;;;;;10431753;28;20711;-69
2023/06/20 05:43:36;;;;;;;5.53;5.13;;;23.70;34.70;;;;;;10427730;28;20636;-69
2023/06/20 05:48:40;;;;;;;5.40;5.00;;;23.80;35.20;;;;;;10426403;28;20270;-71
2023/06/20 05:53:43;;;;;;;5.67;4.97;;;24.00;34.70;;;;;;10426054;28;20229;-70
2023/06/20 05:58:48;;;;;;;5.93;4.50;;;24.10;34.80;;;;;;10425115;28;20319;-70
2023/06/20 06:03:51;;;;;;;4.87;4.50;;;24.30;35.20;;;;;;10428169;28;20229;-70
2023/06/20 06:08:54;;;;;;;5.13;4.83;;;24.50;34.70;;;;;;10430746;28;20237;-70
2023/06/20 06:14:00;;;;;;;5.07;4.60;;;24.50;34.70;;;;;;10445915;28;20228;-70
2023/06/20 06:19:04;;;;;;;5.20;4.80;;;24.60;35.10;;;;;;10423265;28;20316;-70
2023/06/20 06:24:08;;;;;;;5.10;4.70;;;24.70;34.70;;;;;;10434813;28;20244;-69
2023/06/20 06:29:15;;;;;;;4.93;4.60;;;24.80;34.80;;;;;;10434087;28;20233;-69
2023/06/20 06:34:18;;;;;;;5.27;4.87;;;24.80;35.80;;;;;;10430607;28;20231;-69
2023/06/20 06:39:22;;;;;;;5.47;5.00;;;24.90;34.70;;;;;;10439189;28;20317;-69
2023/06/20 06:44:26;;;;;;;5.00;4.70;;;24.90;34.70;;;;;;10432619;28;20328;-69
2023/06/20 06:49:32;;;;;;;5.40;5.00;;;25.00;35.10;;;;;;10442714;28;20576;-70
2023/06/20 06:54:35;;;;;;;5.20;4.90;;;25.00;34.70;;;;;;10436359;28;20306;-70
2023/06/20 06:59:39;;;;;;;4.60;4.30;;;25.10;34.70;;;;;;10444002;28;20234;-70
2023/06/20 07:04:42;;;;;;;4.93;4.43;;;25.10;34.90;;;;;;10442531;28;20229;-70
2023/06/20 07:09:46;;;;;;;4.90;4.50;;;25.10;34.70;;;;;;10440859;28;20239;-70
2023/06/20 07:14:56;;;;;;;5.00;4.57;;;25.20;34.60;;;;;;10446629;28;20320;-70
2023/06/20 07:19:59;;;;;;;5.23;4.87;;;25.20;34.80;;;;;;10433677;28;20313;-70
2023/06/20 07:25:02;;;;;;;5.00;4.50;;;25.20;34.60;;;;;;10438501;28;20229;-70
2023/06/20 07:30:08;;;;;;;4.20;3.90;;;25.30;34.60;;;;;;10439777;28;20612;-71
2023/06/20 07:35:11;;;;;;;4.67;4.17;;;25.30;35.20;;;;;;10436121;28;20233;-71
2023/06/20 07:40:14;;;;;;;3.83;3.53;;;25.40;34.70;;;;;;10444946;28;20239;-71
2023/06/20 07:45:19;;;;;;;3.50;3.23;;;25.40;34.50;;;;;;10433117;28;20226;-71
2023/06/20 07:50:22;;;;;;;3.43;3.23;;;25.50;34.50;;;;;;10440929;28;20720;-71
2023/06/20 07:55:26;;;;;;;3.30;3.00;;;25.70;34.30;;;;;;10437993;28;20240;-71
2023/06/20 08:00:34;;;;;;;3.17;2.97;;;25.90;34.30;;;;;;10435627;28;20252;-71
2023/06/20 08:05:37;;;;;;;3.67;2.70;;;26.00;33.50;;;;;;10441675;28;20268;-70
2023/06/20 08:10:41;;;;;;;2.73;2.53;;;26.20;33.40;;;;;;10443963;28;20320;-70
2023/06/20 08:15:45;;;;;;;2.80;2.60;;;26.30;33.50;;;;;;10433412;28;20228;-71
2023/06/20 08:20:48;;;;;;;2.90;2.70;;;26.40;33.30;;;;;;10443288;28;21089;-71
2023/06/20 08:25:53;;;;;;;2.83;2.63;;;26.60;33.10;;;;;;10438068;28;20226;-70
2023/06/20 08:30:58;;;;;;;2.90;2.60;;;26.90;32.90;;;;;;10436912;28;20233;-70
2023/06/20 08:36:02;;;;;;;3.13;2.60;;;27.10;32.60;;;;;;10439547;28;20287;-70
2023/06/20 08:41:09;;;;;;;2.87;2.67;;;27.30;32.50;;;;;;10443027;28;20253;-70
2023/06/20 08:46:14;;;;;;;2.70;2.60;;;27.60;32.00;;;;;;10440500;28;20319;-70
2023/06/20 08:51:18;;;;;;;2.60;2.40;;;27.80;31.50;;;;;;10436140;28;20271;-70
2023/06/20 08:56:23;;;;;;;2.70;2.50;;;28.00;30.50;;;;;;10437646;28;20236;-70
2023/06/20 09:01:28;;;;;;;3.17;2.57;;;28.30;31.00;;;;;;10426885;28;20232;-70
2023/06/20 09:06:37;;;;;;;2.70;2.60;;;28.50;30.50;;;;;;10432798;28;20232;-70
2023/06/20 09:11:40;;;;;;;2.67;2.53;;;28.70;30.60;;;;;;10442011;28;20320;-71
2023/06/20 09:16:48;;;;;;;3.40;2.70;;;28.90;30.50;;;;;;10430419;28;20332;-71
2023/06/20 09:21:51;;;;;;;3.03;2.83;;;29.10;30.10;;;;;;10432765;28;20233;-70
2023/06/20 09:27:13;;;;;;;3.00;2.80;;;29.30;29.90;;;;;;10434718;28;20224;-70
2023/06/20 09:32:21;;;;;;;2.80;2.60;;;29.40;30.00;;;;;;10439845;28;20223;-70
2023/06/20 09:37:26;;;;;;;2.50;2.40;;;29.70;29.20;;;;;;10430551;28;20225;-70
2023/06/20 09:42:29;;;;;;;3.73;2.37;;;29.90;29.40;;;;;;10426225;28;20279;-70
2023/06/20 09:47:35;;;;;;;2.80;2.60;;;30.10;29.10;;;;;;10434194;28;20221;-71
2023/06/20 09:52:43;;;;;;;2.70;2.50;;;30.30;28.40;;;;;;10433077;28;20240;-70
2023/06/20 09:57:51;;;;;;;2.40;2.30;;;30.40;28.00;;;;;;10433894;28;20600;-70
2023/06/20 10:03:01;;;;;;;2.10;2.00;;;30.50;27.40;;;;;;10433399;28;20274;-71
2023/06/20 10:08:05;;;;;;;2.13;2.03;;;30.70;26.90;;;;;;10429486;28;20235;-70
2023/06/20 10:13:09;;;;;;;3.13;2.00;;;30.80;27.00;;;;;;10428017;28;20238;-71
2023/06/20 10:18:34;;;;;;;1.90;1.80;;;31.00;27.10;;;;;;10429104;28;20312;-68
2023/06/20 10:23:38;;;;;;;2.13;2.00;;;31.10;26.10;;;;;;10435243;28;20231;-68
2023/06/20 10:28:42;;;;;;;2.00;1.90;;;31.30;26.40;;;;;;10442823;28;20240;-68
2023/06/20 10:33:49;;;;;;;2.07;1.97;;;31.50;26.20;;;;;;10435147;28;20279;-68
2023/06/20 10:39:11;;;;;;;2.00;1.80;;;31.60;25.60;;;;;;10432258;28;20240;-71
2023/06/20 10:44:29;;;;;;;2.00;1.90;;;31.80;25.10;;;;;;10431285;28;20590;-71
2023/06/20 10:49:33;;;;;;;2.20;2.10;;;31.90;24.90;;;;;;10427956;28;20240;-68
2023/06/20 10:54:36;;;;;;;2.10;1.90;;;32.10;24.40;;;;;;10424384;28;20239;-68
2023/06/20 10:59:40;;;;;;;2.40;2.20;;;32.20;24.70;;;;;;10425718;28;20233;-68
2023/06/20 11:04:45;;;;;;;2.10;2.00;;;32.30;24.60;;;;;;10420390;28;20229;-71
2023/06/20 11:09:48;;;;;;;2.50;2.30;;;32.40;24.50;;;;;;10430077;28;20244;-71
2023/06/20 11:14:51;;;;;;;2.40;2.30;;;32.50;24.20;;;;;;10427967;28;20230;-73
2023/06/20 11:19:56;;;;;;;2.63;2.00;;;32.60;24.00;;;;;;10429557;28;20263;-73
2023/06/20 11:24:59;;;;;;;3.40;2.20;;;32.70;23.40;;;;;;10421858;28;20744;-73
2023/06/20 11:30:02;;;;;;;2.27;2.17;;;32.80;23.80;;;;;;10422520;28;20710;-72
2023/06/20 11:35:08;;;;;;;2.40;2.20;;;33.00;23.50;;;;;;10430894;28;20231;-73
2023/06/20 11:40:13;;;;;;;2.60;2.40;;;33.20;22.80;;;;;;10428757;28;20222;-71
2023/06/20 11:45:16;;;;;;;2.23;2.03;;;33.30;22.80;;;;;;10423943;28;20226;-71
2023/06/20 11:50:24;;;;;;;3.27;2.50;;;33.40;22.90;;;;;;10429250;28;20238;-71
2023/06/20 11:55:48;;;;;;;2.70;2.50;;;33.50;22.90;;;;;;10431265;28;20235;-71
2023/06/20 12:01:04;;;;;;;3.07;2.30;;;33.50;21.50;;;;;;10435308;28;20322;-71
2023/06/20 12:06:28;;;;;;;3.33;2.50;;;33.50;21.80;;;;;;10442029;28;20257;-71
2023/06/20 12:11:32;;;;;;;2.80;2.60;;;33.50;21.50;;;;;;10430864;28;20226;-71
2023/06/20 12:16:35;;;;;;;4.83;2.60;;;33.50;21.70;;;;;;10429033;28;20232;-71
2023/06/20 12:21:40;;;;;;;3.60;2.60;;;33.60;21.80;;;;;;10421355;28;20233;-71
2023/06/20 12:26:46;;;;;;;3.17;2.43;;;33.70;20.90;;;;;;10422236;28;20237;-71
2023/06/20 12:31:50;;;;;;;2.67;2.47;;;33.70;21.20;;;;;;10423684;28;20235;-71
2023/06/20 12:36:55;;;;;;;2.77;2.30;;;33.80;21.20;;;;;;10420186;28;20241;-67
2023/06/20 12:41:58;;;;;;;3.10;2.87;;;33.90;20.50;;;;;;10424604;28;20233;-68
2023/06/20 12:47:01;;;;;;;3.03;2.50;;;34.00;20.60;;;;;;10423121;28;20325;-68
2023/06/20 12:52:08;;;;;;;3.70;2.63;;;34.10;20.00;;;;;;10430335;28;20233;-68
2023/06/20 12:57:11;;;;;;;4.00;2.63;;;34.20;19.60;;;;;;10420722;28;20269;-68
2023/06/20 13:02:14;;;;;;;2.83;2.60;;;34.40;20.20;;;;;;10422914;28;20345;-72
2023/06/20 13:07:20;;;;;;;3.20;2.60;;;34.40;19.50;;;;;;10421139;28;20332;-72
2023/06/20 13:12:25;;;;;;;2.80;2.50;;;34.50;19.20;;;;;;10423866;28;20232;-72
2023/06/20 13:17:28;;;;;;;4.00;2.90;;;34.50;19.40;;;;;;10428916;28;20362;-72
2023/06/20 13:22:33;;;;;;;4.00;2.70;;;34.50;19.00;;;;;;10425634;28;20224;-72
2023/06/20 13:27:36;;;;;;;5.53;3.10;;;34.50;18.70;;;;;;10424496;28;20732;-72
2023/06/20 13:32:39;;;;;;;3.07;2.77;;;34.50;18.80;;;;;;10420433;28;20252;-72
2023/06/20 13:37:44;;;;;;;4.13;3.00;;;34.50;18.90;;;;;;10418239;28;20907;-72
2023/06/20 13:42:48;;;;;;;3.27;2.90;;;34.50;18.30;;;;;;10425284;28;20982;-72
2023/06/20 13:47:52;;;;;;;3.23;2.87;;;34.60;18.80;;;;;;10430246;28;20327;-72
2023/06/20 13:52:57;;;;;;;3.63;3.00;;;34.70;18.40;;;;;;10422568;28;20232;-72
2023/06/20 13:58:00;;;;;;;3.43;3.00;;;34.70;18.10;;;;;;10440656;28;20319;-72
2023/06/20 14:03:03;;;;;;;5.70;3.10;;;34.80;18.10;;;;;;10434918;28;20231;-72
2023/06/20 14:08:08;;;;;;;4.83;3.00;;;35.00;18.00;;;;;;10441181;28;20234;-71
2023/06/20 14:13:12;;;;;;;3.23;2.80;;;35.00;17.20;;;;;;10438537;28;22299;-72
2023/06/20 14:18:15;;;;;;;3.33;2.90;;;35.00;17.50;;;;;;10442545;28;20227;-72
2023/06/20 14:23:20;;;;;;;3.70;2.80;;;35.00;17.20;;;;;;10441274;28;20222;-72
2023/06/20 14:28:25;;;;;;;3.53;2.57;;;35.10;16.90;;;;;;10442201;28;20238;-72
2023/06/20 14:33:28;;;;;;;3.07;2.67;;;35.00;17.20;;;;;;10444612;28;20232;-72
2023/06/20 14:38:33;;;;;;;7.23;2.90;;;35.00;17.40;;;;;;10443115;28;20232;-72
2023/06/20 14:43:36;;;;;;;3.23;2.50;;;35.00;16.80;;;;;;10435826;28;20316;-72
2023/06/20 14:48:39;;;;;;;3.23;2.70;;;35.10;17.10;;;;;;10448101;28;20949;-72
2023/06/20 14:53:44;;;;;;;4.20;2.80;;;35.10;17.00;;;;;;10441860;28;20309;-72
2023/06/20 14:58:48;;;;;;;3.53;2.63;;;35.20;16.60;;;;;;10438986;28;20260;-72
2023/06/20 15:03:51;;;;;;;4.23;2.67;;;35.20;16.80;;;;;;10444264;28;20227;-72
2023/06/20 15:08:56;;;;;;;3.30;3.00;;;35.20;16.80;;;;;;10432905;28;20232;-72
2023/06/20 15:13:59;;;;;;;5.13;2.63;;;35.20;16.50;;;;;;10435890;28;20619;-72
2023/06/20 15:19:03;;;;;;;3.00;2.70;;;35.20;16.50;;;;;;10432010;28;20231;-71
2023/06/20 15:24:08;;;;;;;3.50;2.60;;;35.20;16.30;;;;;;10430620;28;20226;-72
2023/06/20 15:29:12;;;;;;;3.20;2.60;;;35.20;16.00;;;;;;10433412;28;20257;-72
2023/06/20 15:34:15;;;;;;;3.00;2.80;;;35.30;16.10;;;;;;10435320;28;20239;-72
2023/06/20 15:39:20;;;;;;;3.30;2.70;;;35.30;15.70;;;;;;10434202;28;20287;-72
2023/06/20 15:44:23;;;;;;;4.87;3.00;;;35.30;15.60;;;;;;10433634;28;20282;-72
2023/06/20 15:49:28;;;;;;;5.63;3.13;;;35.40;15.70;;;;;;10432782;28;20736;-71
2023/06/20 15:54:33;;;;;;;4.40;2.83;;;35.40;15.50;;;;;;10442668;28;20235;-72
2023/06/20 15:59:36;;;;;;;3.57;2.87;;;35.40;15.00;;;;;;10427916;28;20598;-71
2023/06/20 16:04:40;;;;;;;4.53;2.50;;;35.40;15.30;;;;;;10430333;28;20237;-72
2023/06/20 16:09:44;;;;;;;3.50;3.00;;;35.50;15.20;;;;;;10429605;28;20320;-71
2023/06/20 16:14:48;;;;;;;3.97;2.87;;;35.60;15.00;;;;;;10428632;28;20232;-68
2023/06/20 16:19:52;;;;;;;4.43;2.77;;;35.70;14.90;;;;;;10430464;28;20242;-68
2023/06/20 16:24:57;;;;;;;4.37;2.70;;;35.70;15.00;;;;;;10424863;28;20223;-68
2023/06/20 16:30:00;;;;;;;4.33;2.80;;;35.80;14.60;;;;;;10421397;28;20327;-66
2023/06/20 16:35:04;;;;;;;4.10;2.60;;;35.80;14.80;;;;;;10430725;28;20217;-66
2023/06/20 16:40:10;;;;;;;5.33;3.40;;;35.80;14.40;;;;;;10431045;28;20237;-66
2023/06/20 16:45:14;;;;;;;3.60;2.70;;;35.70;13.50;;;;;;10428139;28;20235;-66
2023/06/20 16:50:19;;;;;;;5.73;3.30;;;35.70;14.20;;;;;;10422162;28;20611;-71
2023/06/20 16:55:23;;;;;;;4.53;3.00;;;35.60;14.20;;;;;;10436381;28;20237;-71
2023/06/20 17:00:26;;;;;;;3.60;3.00;;;35.60;14.00;;;;;;10431019;28;20742;-68
2023/06/20 17:05:30;;;;;;;6.57;2.80;;;35.50;14.30;;;;;;10440109;28;20232;-68
2023/06/20 17:10:35;;;;;;;3.93;2.80;;;35.60;14.60;;;;;;10439488;28;20777;-68
2023/06/20 17:15:38;;;;;;;4.30;3.27;;;35.70;14.50;;;;;;10437857;28;20238;-68
2023/06/20 17:20:41;;;;;;;3.77;2.97;;;35.70;14.60;;;;;;10433229;28;20604;-68
2023/06/20 17:25:46;;;;;;;3.93;3.03;;;35.70;14.50;;;;;;10434288;28;20226;-68
2023/06/20 17:30:49;;;;;;;4.00;3.10;;;35.70;14.20;;;;;;10443387;28;20266;-68
2023/06/20 17:35:52;;;;;;;3.20;2.80;;;35.70;14.40;;;;;;10439507;28;20318;-69
2023/06/20 17:40:57;;;;;;;4.50;3.07;;;35.80;14.20;;;;;;10445716;28;20232;-68
2023/06/20 17:46:00;;;;;;;4.50;3.13;;;35.70;14.10;;;;;;10437111;28;20236;-68
2023/06/20 17:51:04;;;;;;;5.00;3.00;;;35.70;14.70;;;;;;10436548;28;20306;-69
2023/06/20 17:56:09;;;;;;;4.20;3.10;;;35.60;14.60;;;;;;10436973;28;20230;-69
2023/06/20 18:01:12;;;;;;;5.13;3.10;;;35.60;14.00;;;;;;10441155;28;20230;-68
2023/06/20 18:06:16;;;;;;;4.83;3.27;;;35.60;14.20;;;;;;10436936;28;20233;-69
2023/06/20 18:11:21;;;;;;;4.20;3.00;;;35.40;14.30;;;;;;10436110;28;20223;-69
2023/06/20 18:16:24;;;;;;;6.67;3.10;;;35.30;14.30;;;;;;10436284;28;20247;-69
2023/06/20 18:21:29;;;;;;;3.57;2.90;;;35.30;15.20;;;;;;10439283;28;20232;-69
2023/06/20 18:26:34;;;;;;;3.93;3.47;;;35.20;15.30;;;;;;10440085;28;20232;-69
2023/06/20 18:31:37;;;;;;;4.10;3.13;;;35.10;15.40;;;;;;10434978;28;20236;-69
2023/06/20 18:36:40;;;;;;;4.67;3.30;;;35.00;15.80;;;;;;10435302;28;20288;-69
2023/06/20 18:41:45;;;;;;;4.83;3.30;;;34.90;15.60;;;;;;10435933;28;20310;-69
2023/06/20 18:46:48;;;;;;;4.60;2.90;;;34.80;15.80;;;;;;10441782;28;20275;-69
2023/06/20 18:51:53;;;;;;;5.93;3.60;;;34.60;16.00;;;;;;10435481;28;20329;-69
2023/06/20 18:56:58;;;;;;;6.33;3.57;;;34.40;16.30;;;;;;10432922;28;20614;-69
2023/06/20 19:02:01;;;;;;;3.80;3.23;;;34.20;16.60;;;;;;10445426;28;20241;-69
2023/06/20 19:07:05;;;;;;;4.53;3.10;;;33.90;16.80;;;;;;10439503;28;20236;-69
2023/06/20 19:12:10;;;;;;;5.10;3.43;;;33.80;17.20;;;;;;10444213;28;20245;-69
2023/06/20 19:17:14;;;;;;;4.23;3.47;;;33.60;17.80;;;;;;10441909;28;20312;-69
2023/06/20 19:22:18;;;;;;;5.70;3.60;;;33.40;17.60;;;;;;10444850;28;20220;-69
2023/06/20 19:27:23;;;;;;;6.37;3.37;;;33.30;17.60;;;;;;10439153;28;20231;-69
2023/06/20 19:32:26;;;;;;;6.07;3.40;;;33.10;18.10;;;;;;10437559;28;20227;-69
2023/06/20 19:37:29;;;;;;;5.20;3.57;;;32.80;18.10;;;;;;10443894;28;20322;-69
2023/06/20 19:42:34;;;;;;;8.17;3.73;;;32.70;18.20;;;;;;10438664;28;20693;-69
2023/06/20 19:47:37;;;;;;;4.07;3.67;;;32.50;18.40;;;;;;10437926;28;20324;-69
2023/06/20 19:52:40;;;;;;;6.30;4.00;;;32.20;18.70;;;;;;10437067;28;20320;-69
2023/06/20 19:57:45;;;;;;;4.67;3.67;;;31.80;19.30;;;;;;10441039;28;20411;-69
2023/06/20 20:02:49;;;;;;;4.67;3.97;;;31.40;20.00;;;;;;10435087;28;20693;-69
2023/06/20 20:07:53;;;;;;;6.17;4.27;;;31.10;20.00;;;;;;10439075;28;20240;-69
2023/06/20 20:12:57;;;;;;;11.50;4.80;;;30.90;19.70;;;;;;10429058;28;20348;-70
2023/06/20 20:18:01;;;;;;;6.50;4.03;;;30.70;22.10;;;;;;10429635;28;20228;-69
2023/06/20 20:23:07;;;;;;;5.57;3.90;;;30.40;22.60;;;;;;10428884;28;20883;-70
2023/06/20 20:28:12;;;;;;;5.53;3.87;;;30.00;23.00;;;;;;10429551;28;20230;-70
2023/06/20 20:33:15;;;;;;;6.93;4.03;;;29.70;24.00;;;;;;10425661;28;20811;-70
2023/06/20 20:38:19;;;;;;;5.70;4.10;;;29.50;24.10;;;;;;10431139;28;20225;-69
2023/06/20 20:43:23;;;;;;;5.80;4.50;;;29.40;24.30;;;;;;10431088;28;20317;-71
2023/06/20 20:48:27;;;;;;;8.63;3.47;;;29.30;25.40;;;;;;10421584;28;20229;-70
2023/06/20 20:53:30;;;;;;;7.33;3.60;;;29.10;24.40;;;;;;10428954;28;20303;-71
2023/06/20 20:58:35;;;;;;;6.33;4.00;;;29.00;24.60;;;;;;10428584;28;20233;-70
2023/06/20 21:03:39;;;;;;;6.97;4.27;;;28.80;25.60;;;;;;10428537;28;20231;-70
2023/06/20 21:08:42;;;;;;;7.37;3.90;;;28.50;25.20;;;;;;10420438;28;20236;-70
2023/06/20 21:13:47;;;;;;;4.90;3.77;;;28.20;25.40;;;;;;10429553;28;20698;-71
2023/06/20 21:18:50;;;;;;;3.70;3.23;;;28.00;26.40;;;;;;10431235;28;20327;-71
2023/06/20 21:23:53;;;;;;;7.93;3.40;;;27.80;25.70;;;;;;10428978;28;20704;-70
2023/06/20 21:28:58;;;;;;;5.33;3.60;;;27.70;26.20;;;;;;10431934;28;20348;-70
2023/06/20 21:34:01;;;;;;;4.33;3.70;;;27.60;27.20;;;;;;10432405;28;20221;-71
2023/06/20 21:39:05;;;;;;;7.03;3.50;;;27.20;27.20;;;;;;10433761;28;20319;-70
2023/06/20 21:44:10;;;;;;;5.03;3.40;;;26.90;27.50;;;;;;10427561;28;20267;-70
2023/06/20 21:49:13;;;;;;;5.33;3.77;;;26.60;28.30;;;;;;10428321;28;22018;-70
2023/06/20 21:54:17;;;;;;;4.80;3.33;;;26.60;28.20;;;;;;10424866;28;20634;-70
2023/06/20 21:59:22;;;;;;;4.57;3.50;;;26.60;28.40;;;;;;10425637;28;20236;-70
2023/06/20 22:04:25;;;;;;;6.60;3.70;;;26.70;28.80;;;;;;10433372;28;20221;-70
2023/06/20 22:09:28;;;;;;;3.60;3.30;;;26.90;28.50;;;;;;10429391;28;20236;-70
2023/06/20 22:14:33;;;;;;;5.77;3.33;;;27.00;28.50;;;;;;10432947;28;20217;-70
2023/06/20 22:19:36;;;;;;;4.60;3.70;;;27.00;29.40;;;;;;10447717;28;20711;-71
2023/06/20 22:24:39;;;;;;;5.80;3.73;;;27.10;28.80;;;;;;10440816;28;20225;-70
2023/06/20 22:29:44;;;;;;;4.57;3.17;;;27.20;28.50;;;;;;10434961;28;20979;-71
2023/06/20 22:34:47;;;;;;;5.30;3.50;;;27.20;29.10;;;;;;10422805;28;20225;-70
2023/06/20 22:39:50;;;;;;;4.30;3.57;;;27.20;28.80;;;;;;10429468;28;20234;-71
2023/06/20 22:44:55;;;;;;;5.20;3.40;;;27.30;28.80;;;;;;10429528;28;20225;-71
2023/06/20 22:49:58;;;;;;;4.27;3.77;;;27.30;29.30;;;;;;10425973;28;20228;-70
2023/06/20 22:55:02;;;;;;;5.43;3.50;;;27.30;28.70;;;;;;10436577;28;20233;-69
2023/06/20 23:00:10;;;;;;;4.70;3.53;;;27.30;29.10;;;;;;10432195;28;20233;-70
2023/06/20 23:05:14;;;;;;;7.73;3.67;;;27.30;29.90;;;;;;10422844;28;20228;-70
2023/06/20 23:10:18;;;;;;;6.40;3.97;;;27.20;29.30;;;;;;10429939;28;20227;-70
2023/06/20 23:15:23;;;;;;;7.33;4.10;;;27.00;29.60;;;;;;10437721;28;20232;-71
2023/06/20 23:20:26;;;;;;;6.43;4.13;;;26.80;29.60;;;;;;10425720;28;20261;-71
2023/06/20 23:25:40;;;;;;;6.53;4.07;;;26.60;29.50;;;;;;10431431;28;20594;-71
2023/06/20 23:30:48;;;;;;;6.50;3.70;;;26.40;31.20;;;;;;10432597;28;20283;-71
2023/06/20 23:35:51;;;;;;;4.83;3.73;;;26.30;30.40;;;;;;10436849;28;20755;-71
2023/06/20 23:40:54;;;;;;;5.67;3.50;;;26.10;30.00;;;;;;10435687;28;20708;-70
2023/06/20 23:45:59;;;;;;;5.97;3.37;;;26.00;30.20;;;;;;10430449;28;20232;-70
2023/06/20 23:51:03;;;;;;;5.40;3.30;;;26.00;31.10;;;;;;10433788;28;20231;-70
2023/06/20 23:56:06;;;;;;;5.87;3.80;;;26.00;30.60;;;;;;10432292;28;20325;-71
